createdAt,value
2022-10-17T00:01:07.654Z,12.60
2022-10-17T00:03:39.188Z,12.60
2022-10-17T00:06:09.358Z,12.60
2022-10-17T00:08:37.738Z,12.60
2022-10-17T00:11:08.943Z,12.60
2022-10-17T00:13:37.197Z,12.60
2022-10-17T00:16:06.200Z,12.50
2022-10-17T00:18:34.790Z,12.50
2022-10-17T00:21:04.331Z,12.50
2022-10-17T00:23:32.395Z,12.50
2022-10-17T00:26:01.100Z,12.50
2022-10-17T00:28:29.749Z,12.50
2022-10-17T00:30:58.653Z,12.40
2022-10-17T00:33:27.420Z,12.40
2022-10-17T00:36:06.609Z,12.40
2022-10-17T00:38:37.456Z,12.30
2022-10-17T00:41:06.945Z,12.30
2022-10-17T00:43:50.714Z,12.30
2022-10-17T00:46:18.880Z,12.40
2022-10-17T00:48:48.986Z,12.40
2022-10-17T00:51:20.998Z,12.20
2022-10-17T00:53:51.777Z,12.20
2022-10-17T00:56:21.764Z,12.20
2022-10-17T00:58:50.454Z,12.20
2022-10-17T01:01:18.788Z,12.20
2022-10-17T01:03:47.333Z,12.20
2022-10-17T01:06:15.645Z,12.20
2022-10-17T01:08:45.400Z,12.20
2022-10-17T01:11:23.721Z,12.10
2022-10-17T01:13:56.513Z,12.10
2022-10-17T01:16:35.971Z,12.10
2022-10-17T01:19:18.913Z,12.10
2022-10-17T01:21:55.656Z,12.00
2022-10-17T01:25:19.443Z,12.00
2022-10-17T01:28:19.892Z,12.00
2022-10-17T01:31:00.391Z,12.00
2022-10-17T01:33:43.333Z,11.90
2022-10-17T01:36:16.125Z,11.90
2022-10-17T01:38:49.931Z,11.90
2022-10-17T01:41:26.284Z,11.90
2022-10-17T01:43:57.986Z,11.90
2022-10-17T01:46:31.219Z,11.90
2022-10-17T01:49:03.478Z,11.80
2022-10-17T01:51:37.407Z,11.80
2022-10-17T01:54:13.104Z,11.80
2022-10-17T01:56:43.828Z,11.80
2022-10-17T01:59:16.509Z,11.80
2022-10-17T02:01:52.143Z,11.80
2022-10-17T02:04:20.925Z,11.80
2022-10-17T02:06:48.933Z,11.70
2022-10-17T02:09:23.461Z,11.70
2022-10-17T02:12:15.517Z,11.70
2022-10-17T02:14:56.524Z,11.70
2022-10-17T02:17:39.431Z,11.70
2022-10-17T02:20:18.124Z,11.70
2022-10-17T02:22:51.568Z,11.70
2022-10-17T02:25:37.263Z,11.70
2022-10-17T02:28:22.339Z,11.60
2022-10-17T02:30:55.391Z,11.50
2022-10-17T02:33:28.727Z,11.50
2022-10-17T02:36:01.420Z,11.50
2022-10-17T02:38:31.929Z,11.50
2022-10-17T02:41:02.160Z,11.40
2022-10-17T02:43:30.936Z,11.40
2022-10-17T02:45:59.999Z,11.40
2022-10-17T02:48:37.946Z,11.40
2022-10-17T02:51:13.697Z,11.40
2022-10-17T02:53:56.096Z,11.40
2022-10-17T02:56:26.524Z,11.40
2022-10-17T02:58:58.644Z,11.40
2022-10-17T03:01:27.627Z,11.50
2022-10-17T03:04:08.223Z,11.50
2022-10-17T03:06:36.296Z,11.60
2022-10-17T03:09:04.634Z,11.60
2022-10-17T03:11:32.905Z,11.60
2022-10-17T03:14:01.915Z,11.50
2022-10-17T03:16:30.408Z,11.40
2022-10-17T03:18:58.875Z,11.30
2022-10-17T03:21:28.362Z,11.40
2022-10-17T03:23:57.422Z,11.40
2022-10-17T03:26:26.189Z,11.50
2022-10-17T03:28:54.634Z,11.50
2022-10-17T03:31:24.261Z,11.50
2022-10-17T03:33:53.666Z,11.80
2022-10-17T03:36:22.080Z,11.90
2022-10-17T03:38:54.913Z,12.00
2022-10-17T03:41:24.829Z,12.00
2022-10-17T03:43:54.918Z,11.90
2022-10-17T03:46:24.956Z,11.70
2022-10-17T03:48:53.640Z,11.70
2022-10-17T03:51:22.284Z,11.60
2022-10-17T03:53:56.475Z,11.60
2022-10-17T03:56:25.859Z,11.50
2022-10-17T03:59:06.000Z,11.70
2022-10-17T04:01:37.499Z,11.70
2022-10-17T04:04:05.832Z,11.70
2022-10-17T04:06:36.664Z,11.70
2022-10-17T04:09:07.964Z,11.60
2022-10-17T04:11:45.479Z,11.60
2022-10-17T04:14:14.447Z,11.50
2022-10-17T04:16:43.512Z,11.50
2022-10-17T04:19:17.517Z,11.50
2022-10-17T04:21:47.935Z,11.50
2022-10-17T04:24:18.230Z,11.40
2022-10-17T04:27:15.395Z,11.50
2022-10-17T04:29:47.243Z,11.50
2022-10-17T04:32:23.300Z,11.50
2022-10-17T04:35:12.356Z,11.50
2022-10-17T04:37:45.741Z,11.40
2022-10-17T04:40:20.887Z,11.30
2022-10-17T04:42:52.526Z,11.40
2022-10-17T04:45:23.240Z,11.40
2022-10-17T04:47:56.721Z,11.30
2022-10-17T04:50:25.110Z,11.40
2022-10-17T04:53:13.739Z,11.40
2022-10-17T04:55:43.280Z,11.30
2022-10-17T04:58:11.413Z,11.40
2022-10-17T05:00:39.757Z,11.50
2022-10-17T05:03:15.652Z,11.50
2022-10-17T05:05:44.597Z,11.50
2022-10-17T05:08:13.722Z,11.40
2022-10-17T05:10:46.077Z,11.40
2022-10-17T05:13:15.206Z,11.30
2022-10-17T05:15:43.501Z,11.30
2022-10-17T05:18:13.436Z,11.30
2022-10-17T05:20:43.666Z,11.20
2022-10-17T05:23:11.805Z,11.10
2022-10-17T05:25:45.344Z,11.10
2022-10-17T05:28:13.773Z,11.10
2022-10-17T05:30:43.507Z,11.20
2022-10-17T05:33:12.162Z,11.20
2022-10-17T05:35:41.136Z,11.20
2022-10-17T05:38:09.363Z,11.20
2022-10-17T05:40:39.542Z,11.20
2022-10-17T05:43:09.155Z,11.20
2022-10-17T05:45:37.913Z,11.10
2022-10-17T05:48:09.041Z,11.10
2022-10-17T05:50:37.800Z,11.10
2022-10-17T05:53:11.561Z,11.10
2022-10-17T05:55:45.747Z,11.10
2022-10-17T05:58:22.294Z,11.10
2022-10-17T06:01:02.841Z,11.10
2022-10-17T06:03:31.497Z,11.10
2022-10-17T06:06:05.074Z,11.10
2022-10-17T06:08:33.478Z,11.20
2022-10-17T06:11:06.087Z,11.20
2022-10-17T06:13:39.099Z,11.20
2022-10-17T06:16:13.284Z,11.20
2022-10-17T06:18:41.395Z,11.20
2022-10-17T06:21:11.443Z,11.10
2022-10-17T06:23:44.731Z,11.10
2022-10-17T06:26:17.673Z,11.00
2022-10-17T06:28:47.347Z,11.10
2022-10-17T06:31:17.875Z,11.10
2022-10-17T06:33:46.884Z,11.10
2022-10-17T06:36:16.463Z,11.10
2022-10-17T06:38:46.797Z,11.10
2022-10-17T06:41:22.187Z,11.10
2022-10-17T06:43:55.148Z,11.10
2022-10-17T06:46:39.683Z,11.20
2022-10-17T06:49:11.603Z,11.20
2022-10-17T06:51:56.474Z,11.20
2022-10-17T06:54:33.522Z,11.30
2022-10-17T06:57:29.113Z,11.30
2022-10-17T07:00:19.167Z,11.30
2022-10-17T07:02:52.444Z,11.40
2022-10-17T07:05:22.524Z,11.40
2022-10-17T07:07:52.044Z,11.50
2022-10-17T07:10:21.659Z,11.50
2022-10-17T07:12:49.755Z,11.60
2022-10-17T07:15:19.362Z,11.70
2022-10-17T07:17:50.722Z,11.70
2022-10-17T07:20:20.183Z,11.80
2022-10-17T07:22:48.630Z,11.90
2022-10-17T07:25:16.888Z,12.00
2022-10-17T07:27:51.333Z,12.10
2022-10-17T07:30:21.528Z,12.20
2022-10-17T07:33:02.424Z,12.30
2022-10-17T07:35:32.071Z,12.40
2022-10-17T07:38:00.460Z,12.40
2022-10-17T07:40:29.041Z,12.40
2022-10-17T07:42:58.160Z,12.40
2022-10-17T07:45:28.896Z,12.50
2022-10-17T07:47:58.786Z,12.50
2022-10-17T07:50:27.076Z,12.60
2022-10-17T07:52:55.288Z,12.70
2022-10-17T07:55:23.359Z,12.70
2022-10-17T07:57:51.745Z,12.80
2022-10-17T08:00:19.925Z,12.80
2022-10-17T08:02:49.657Z,12.90
2022-10-17T08:05:17.807Z,12.90
2022-10-17T08:07:45.904Z,12.90
2022-10-17T08:10:15.057Z,12.90
2022-10-17T08:12:43.836Z,13.00
2022-10-17T08:15:12.477Z,13.00
2022-10-17T08:17:40.998Z,13.20
2022-10-17T08:20:12.385Z,13.20
2022-10-17T08:22:41.865Z,13.30
2022-10-17T08:25:10.795Z,13.40
2022-10-17T08:27:39.640Z,13.50
2022-10-17T08:30:08.836Z,13.60
2022-10-17T08:32:36.870Z,13.70
2022-10-17T08:35:05.273Z,13.70
2022-10-17T08:37:34.660Z,13.80
2022-10-17T08:40:03.258Z,13.90
2022-10-17T08:42:52.268Z,13.80
2022-10-17T08:45:27.160Z,13.90
2022-10-17T08:47:59.838Z,13.90
2022-10-17T08:50:36.711Z,13.90
2022-10-17T08:53:11.399Z,13.90
2022-10-17T08:55:44.620Z,14.00
2022-10-17T08:58:15.961Z,14.00
2022-10-17T09:00:52.033Z,14.10
2022-10-17T09:03:32.603Z,14.00
2022-10-17T09:06:20.682Z,14.20
2022-10-17T09:09:03.937Z,14.30
2022-10-17T09:11:51.578Z,14.40
2022-10-17T09:14:45.783Z,14.40
2022-10-17T09:17:25.326Z,14.70
2022-10-17T09:20:00.844Z,14.80
2022-10-17T09:22:35.286Z,14.90
2022-10-17T09:25:12.652Z,14.90
2022-10-17T09:27:44.436Z,15.00
2022-10-17T09:30:50.560Z,15.00
2022-10-17T09:33:35.366Z,15.10
2022-10-17T09:36:14.623Z,15.30
2022-10-17T09:38:49.014Z,15.50
2022-10-17T09:44:16.383Z,15.80
2022-10-17T09:46:53.379Z,15.90
2022-10-17T09:49:27.327Z,16.00
2022-10-17T09:51:55.638Z,16.10
2022-10-17T09:54:27.696Z,16.20
2022-10-17T09:57:02.458Z,16.30
2022-10-17T09:59:35.229Z,16.40
2022-10-17T10:02:17.878Z,16.50
2022-10-17T10:05:05.921Z,16.60
2022-10-17T10:07:37.422Z,16.70
2022-10-17T10:10:08.366Z,16.80
2022-10-17T10:12:40.092Z,16.90
2022-10-17T10:15:34.915Z,16.90
2022-10-17T10:18:03.123Z,17.00
2022-10-17T10:20:35.008Z,17.10
2022-10-17T10:23:08.889Z,17.10
2022-10-17T10:25:37.534Z,17.20
2022-10-17T10:28:12.839Z,17.20
2022-10-17T10:30:41.150Z,17.40
2022-10-17T10:33:13.200Z,17.40
2022-10-17T10:35:41.440Z,17.40
2022-10-17T10:38:12.502Z,17.60
2022-10-17T10:40:48.573Z,17.60
2022-10-17T10:43:28.045Z,17.80
2022-10-17T10:45:56.738Z,17.80
2022-10-17T10:48:26.550Z,17.90
2022-10-17T10:50:58.822Z,18.00
2022-10-17T10:53:37.944Z,18.00
2022-10-17T10:56:10.995Z,18.10
2022-10-17T10:58:50.022Z,18.10
2022-10-17T11:01:25.088Z,18.10
2022-10-17T11:04:01.211Z,18.20
2022-10-17T11:06:33.646Z,18.30
2022-10-17T11:09:13.435Z,18.30
2022-10-17T11:11:46.051Z,18.30
2022-10-17T11:14:20.460Z,18.30
2022-10-17T11:16:54.262Z,18.40
2022-10-17T11:19:26.798Z,18.40
2022-10-17T11:22:12.842Z,18.60
2022-10-17T11:24:46.110Z,18.60
2022-10-17T11:27:14.216Z,18.70
2022-10-17T11:29:45.893Z,18.70
2022-10-17T11:32:19.320Z,18.70
2022-10-17T11:34:50.785Z,18.80
2022-10-17T11:37:22.787Z,18.90
2022-10-17T11:39:55.130Z,18.90
2022-10-17T11:42:28.598Z,18.90
2022-10-17T11:45:03.511Z,18.90
2022-10-17T11:47:39.452Z,19.00
2022-10-17T11:53:13.932Z,19.10
2022-10-17T11:55:43.755Z,19.20
2022-10-17T11:58:26.751Z,19.20
2022-10-17T12:01:05.420Z,19.30
2022-10-17T12:03:46.695Z,19.30
2022-10-17T12:06:22.922Z,19.30
2022-10-17T12:08:59.882Z,19.30
2022-10-17T12:11:41.073Z,19.30
2022-10-17T12:14:41.172Z,19.40
2022-10-17T12:17:38.777Z,19.40
2022-10-17T12:20:41.097Z,19.50
2022-10-17T12:23:29.563Z,19.50
2022-10-17T12:26:04.725Z,19.50
2022-10-17T12:28:35.046Z,19.60
2022-10-17T12:31:06.648Z,19.60
2022-10-17T12:33:39.511Z,19.60
2022-10-17T12:36:48.496Z,19.60
2022-10-17T12:39:50.826Z,19.60
2022-10-17T12:42:47.741Z,19.70
2022-10-17T12:45:48.285Z,19.70
2022-10-17T12:48:49.793Z,19.80
2022-10-17T12:51:35.245Z,19.80
2022-10-17T12:54:13.135Z,19.80
2022-10-17T12:56:43.954Z,19.80
2022-10-17T12:59:18.351Z,19.80
2022-10-17T13:01:50.437Z,19.70
2022-10-17T13:04:19.605Z,19.70
2022-10-17T13:06:54.051Z,19.70
2022-10-17T13:09:30.328Z,19.70
2022-10-17T13:12:00.797Z,19.70
2022-10-17T13:14:29.582Z,19.70
2022-10-17T13:17:00.643Z,19.80
2022-10-17T13:19:32.470Z,19.70
2022-10-17T13:22:07.132Z,19.80
2022-10-17T13:24:37.765Z,19.70
2022-10-17T13:27:07.358Z,19.70
2022-10-17T13:29:36.132Z,19.70
2022-10-17T13:32:06.800Z,19.70
2022-10-17T13:34:35.354Z,19.70
2022-10-17T13:37:07.433Z,19.70
2022-10-17T13:39:56.570Z,19.70
2022-10-17T13:42:29.573Z,19.70
2022-10-17T13:44:59.081Z,19.70
2022-10-17T13:47:30.771Z,19.60
2022-10-17T13:50:00.130Z,19.60
2022-10-17T13:52:31.297Z,19.60
2022-10-17T13:55:12.511Z,19.60
2022-10-17T13:57:42.385Z,19.60
2022-10-17T14:00:19.581Z,19.70
2022-10-17T14:02:48.303Z,19.70
2022-10-17T14:05:19.738Z,19.70
2022-10-17T14:10:43.606Z,19.60
2022-10-17T14:13:22.151Z,19.60
2022-10-17T14:15:51.214Z,19.50
2022-10-17T14:18:22.708Z,19.40
2022-10-17T14:23:43.194Z,19.30
2022-10-17T14:26:15.231Z,19.20
2022-10-17T14:28:45.917Z,19.20
2022-10-17T14:31:24.812Z,19.10
2022-10-17T14:33:54.695Z,19.10
2022-10-17T14:36:32.936Z,19.00
2022-10-17T14:39:03.609Z,19.00
2022-10-17T14:41:42.886Z,19.00
2022-10-17T14:44:21.401Z,18.90
2022-10-17T14:46:53.918Z,18.90
2022-10-17T14:49:26.947Z,18.90
2022-10-17T14:52:17.632Z,18.80
2022-10-17T14:54:49.537Z,18.80
2022-10-17T14:57:20.718Z,18.80
2022-10-17T14:59:56.256Z,18.80
2022-10-17T15:02:25.642Z,18.80
2022-10-17T15:04:54.281Z,18.70
2022-10-17T15:07:23.715Z,18.70
2022-10-17T15:09:54.597Z,18.70
2022-10-17T15:12:25.142Z,18.60
2022-10-17T15:14:54.118Z,18.60
2022-10-17T15:17:25.297Z,18.60
2022-10-17T15:19:53.736Z,18.60
2022-10-17T15:22:21.909Z,18.60
2022-10-17T15:24:50.068Z,18.50
2022-10-17T15:27:20.826Z,18.50
2022-10-17T15:29:49.684Z,18.40
2022-10-17T15:32:18.263Z,18.40
2022-10-17T15:34:46.623Z,18.40
2022-10-17T15:37:20.770Z,18.30
2022-10-17T15:39:53.393Z,18.30
2022-10-17T15:42:27.669Z,18.20
2022-10-17T15:44:56.126Z,18.20
2022-10-17T15:47:26.950Z,18.10
2022-10-17T15:49:56.092Z,18.10
2022-10-17T15:52:25.428Z,18.00
2022-10-17T15:54:54.165Z,17.90
2022-10-17T15:57:25.512Z,17.80
2022-10-17T15:59:55.057Z,17.70
2022-10-17T16:02:24.549Z,17.60
2022-10-17T16:04:54.014Z,17.50
2022-10-17T16:07:22.377Z,17.40
2022-10-17T16:09:50.553Z,17.30
2022-10-17T16:14:57.377Z,17.20
2022-10-17T16:17:25.663Z,17.10
2022-10-17T16:19:53.807Z,17.00
2022-10-17T16:22:27.587Z,17.00
2022-10-17T16:24:59.103Z,16.90
2022-10-17T16:27:27.412Z,16.80
2022-10-17T16:29:56.953Z,16.70
2022-10-17T16:32:24.966Z,16.60
2022-10-17T16:34:53.228Z,16.60
2022-10-17T16:37:21.291Z,16.50
2022-10-17T16:39:52.607Z,16.40
2022-10-17T16:42:21.389Z,16.30
2022-10-17T16:44:50.365Z,16.20
2022-10-17T16:47:20.286Z,16.20
2022-10-17T16:49:48.571Z,16.10
2022-10-17T16:52:16.866Z,16.00
2022-10-17T16:54:45.040Z,16.00
2022-10-17T16:57:13.359Z,15.90
2022-10-17T16:59:41.727Z,15.90
2022-10-17T17:02:12.091Z,15.80
2022-10-17T17:04:41.938Z,15.70
2022-10-17T17:07:10.005Z,15.60
2022-10-17T17:09:38.330Z,15.60
2022-10-17T17:12:06.489Z,15.50
2022-10-17T17:14:34.548Z,15.40
2022-10-17T17:17:02.658Z,15.40
2022-10-17T17:19:30.765Z,15.40
2022-10-17T17:22:00.144Z,15.30
2022-10-17T17:24:28.909Z,15.20
2022-10-17T17:26:57.819Z,15.20
2022-10-17T17:29:26.448Z,15.10
2022-10-17T17:31:54.523Z,15.00
2022-10-17T17:34:22.935Z,15.00
2022-10-17T17:36:51.155Z,14.90
2022-10-17T17:39:20.613Z,14.90
2022-10-17T17:41:48.689Z,14.80
2022-10-17T17:44:17.285Z,14.70
2022-10-17T17:46:46.431Z,14.70
2022-10-17T17:49:15.352Z,14.70
2022-10-17T17:51:46.392Z,14.60
2022-10-17T17:54:15.196Z,14.60
2022-10-17T17:56:44.643Z,14.60
2022-10-17T17:59:14.374Z,14.60
2022-10-17T18:01:42.561Z,14.50
2022-10-17T18:04:11.911Z,14.50
2022-10-17T18:06:40.721Z,14.50
2022-10-17T18:09:09.422Z,14.50
2022-10-17T18:11:38.674Z,14.40
2022-10-17T18:14:11.437Z,14.30
2022-10-17T18:16:39.885Z,14.20
2022-10-17T18:19:09.903Z,14.10
2022-10-17T18:21:38.426Z,14.10
2022-10-17T18:24:07.409Z,14.10
2022-10-17T18:26:35.902Z,14.00
2022-10-17T18:29:05.008Z,14.00
2022-10-17T18:31:36.040Z,14.00
2022-10-17T18:34:05.833Z,13.90
2022-10-17T18:36:35.005Z,13.90
2022-10-17T18:39:03.294Z,13.90
2022-10-17T18:41:31.893Z,13.90
2022-10-17T18:44:00.144Z,14.00
2022-10-17T18:46:35.812Z,13.90
2022-10-17T18:49:05.973Z,13.80
2022-10-17T18:51:34.382Z,13.70
2022-10-17T18:54:04.769Z,13.70
2022-10-17T18:56:33.105Z,13.60
2022-10-17T18:59:01.525Z,13.60
2022-10-17T19:01:29.856Z,13.50
2022-10-17T19:04:00.000Z,13.50
2022-10-17T19:06:32.100Z,13.50
2022-10-17T19:09:01.041Z,13.50
2022-10-17T19:11:30.585Z,13.40
2022-10-17T19:14:01.053Z,13.40
2022-10-17T19:16:31.655Z,13.40
2022-10-17T19:19:03.063Z,13.40
2022-10-17T19:21:33.003Z,13.30
2022-10-17T19:24:03.118Z,13.30
2022-10-17T19:26:33.440Z,13.30
2022-10-17T19:29:01.578Z,13.20
2022-10-17T19:31:31.548Z,13.20
2022-10-17T19:34:00.608Z,13.20
2022-10-17T19:36:33.459Z,13.20
2022-10-17T19:39:04.986Z,13.10
2022-10-17T19:41:33.572Z,13.10
2022-10-17T19:44:01.931Z,13.20
2022-10-17T19:46:31.911Z,13.20
2022-10-17T19:48:59.995Z,13.10
2022-10-17T19:51:29.120Z,13.10
2022-10-17T19:54:00.314Z,13.10
2022-10-17T19:56:32.268Z,13.00
2022-10-17T19:59:04.007Z,12.90
2022-10-17T20:01:34.771Z,12.90
2022-10-17T20:04:03.073Z,12.90
2022-10-17T20:06:31.298Z,12.80
2022-10-17T20:08:59.481Z,12.80
2022-10-17T20:11:30.020Z,12.70
2022-10-17T20:13:58.340Z,12.70
2022-10-17T20:16:28.684Z,12.70
2022-10-17T20:18:58.946Z,12.70
2022-10-17T20:21:31.506Z,12.70
2022-10-17T20:24:01.366Z,12.60
2022-10-17T20:26:39.762Z,12.60
2022-10-17T20:29:11.180Z,12.60
2022-10-17T20:31:41.749Z,12.60
2022-10-17T20:34:13.449Z,12.50
2022-10-17T20:36:41.946Z,12.50
2022-10-17T20:39:12.185Z,12.40
2022-10-17T20:41:42.485Z,12.50
2022-10-17T20:44:10.653Z,12.50
2022-10-17T20:46:45.227Z,12.50
2022-10-17T20:49:22.825Z,12.40
2022-10-17T20:51:51.011Z,12.40
2022-10-17T20:54:19.373Z,12.40
2022-10-17T20:56:49.943Z,12.30
2022-10-17T20:59:18.980Z,12.30
2022-10-17T21:01:48.012Z,12.30
2022-10-17T21:04:44.162Z,12.20
2022-10-17T21:07:04.864Z,12.30
2022-10-17T21:09:33.007Z,12.20
2022-10-17T21:12:05.025Z,12.20
2022-10-17T21:14:33.968Z,12.20
2022-10-17T21:17:05.233Z,12.20
2022-10-17T21:19:33.965Z,12.20
2022-10-17T21:22:02.138Z,12.20
2022-10-17T21:24:30.772Z,12.10
2022-10-17T21:26:58.912Z,12.10
2022-10-17T21:29:30.093Z,12.10
2022-10-17T21:31:58.268Z,12.10
2022-10-17T21:34:26.680Z,12.00
2022-10-17T21:36:55.168Z,12.00
2022-10-17T21:39:25.137Z,12.00
2022-10-17T21:41:57.921Z,12.00
2022-10-17T21:44:28.670Z,12.00
2022-10-17T21:46:57.085Z,12.00
2022-10-17T21:49:26.472Z,11.90
2022-10-17T21:51:55.371Z,11.90
2022-10-17T21:54:24.529Z,11.90
2022-10-17T21:56:53.994Z,11.90
2022-10-17T21:59:22.201Z,11.90
2022-10-17T22:01:51.923Z,11.90
2022-10-17T22:04:20.982Z,11.90
2022-10-17T22:06:52.346Z,11.80
2022-10-17T22:09:23.424Z,11.80
2022-10-17T22:11:54.145Z,11.80
2022-10-17T22:14:23.937Z,11.80
2022-10-17T22:16:53.682Z,11.80
2022-10-17T22:19:26.105Z,11.80
2022-10-17T22:21:55.060Z,11.70
2022-10-17T22:24:25.393Z,11.70
2022-10-17T22:26:54.416Z,11.70
2022-10-17T22:29:22.508Z,11.70
2022-10-17T22:31:50.717Z,11.70
2022-10-17T22:34:22.600Z,11.70
2022-10-17T22:36:50.885Z,11.60
2022-10-17T22:39:19.353Z,11.60
2022-10-17T22:41:47.773Z,11.70
2022-10-17T22:44:15.751Z,11.70
2022-10-17T22:46:43.776Z,11.70
2022-10-17T22:49:11.867Z,11.60
2022-10-17T22:51:41.382Z,11.60
2022-10-17T22:54:09.500Z,11.70
2022-10-17T22:56:37.614Z,11.70
2022-10-17T22:59:06.061Z,11.60
2022-10-17T23:01:34.179Z,11.60
2022-10-17T23:04:02.329Z,11.60
2022-10-17T23:06:30.473Z,11.60
2022-10-17T23:08:59.941Z,11.60
2022-10-17T23:11:28.011Z,11.60
2022-10-17T23:13:56.264Z,11.60
2022-10-17T23:16:24.276Z,11.60
2022-10-17T23:18:53.007Z,11.50
2022-10-17T23:21:21.143Z,11.50
2022-10-17T23:23:49.198Z,11.50
2022-10-17T23:26:18.659Z,11.50
2022-10-17T23:28:46.800Z,11.60
2022-10-17T23:31:16.623Z,11.60
2022-10-17T23:33:45.904Z,11.60
2022-10-17T23:36:15.777Z,11.60
2022-10-17T23:38:45.356Z,11.60
2022-10-17T23:41:13.756Z,11.50
2022-10-17T23:43:43.572Z,11.50
2022-10-17T23:46:12.554Z,11.50
2022-10-17T23:48:41.095Z,11.50
2022-10-17T23:51:10.697Z,11.50
2022-10-17T23:53:39.373Z,11.40
2022-10-17T23:56:08.830Z,11.40
2022-10-17T23:58:37.545Z,11.40
